createdAt,value
2019-03-19T00:00:00.882Z,60.60
2019-03-19T00:02:29.345Z,60.40
2019-03-19T00:04:56.964Z,60.20
2019-03-19T00:07:27.023Z,60.30
2019-03-19T00:09:54.703Z,60.20
2019-03-19T00:12:22.484Z,60.30
2019-03-19T00:14:50.361Z,60.20
2019-03-19T00:17:18.095Z,60.30
2019-03-19T00:19:48.102Z,60.30
2019-03-19T00:22:15.760Z,60.10
2019-03-19T00:24:43.431Z,60.10
2019-03-19T00:27:11.137Z,59.60
2019-03-19T00:29:38.912Z,59.30
2019-03-19T00:32:06.722Z,59.10
2019-03-19T00:34:34.378Z,59.20
2019-03-19T00:37:02.075Z,59.20
2019-03-19T00:39:29.904Z,59.10
2019-03-19T00:41:57.687Z,59.30
2019-03-19T00:44:25.523Z,59.20
2019-03-19T00:46:57.600Z,59.30
2019-03-19T00:49:22.827Z,59.50
2019-03-19T00:51:50.720Z,59.40
2019-03-19T00:54:18.770Z,59.40
2019-03-19T00:56:46.426Z,59.20
2019-03-19T00:59:15.330Z,59.10
2019-03-19T01:01:45.215Z,58.90
2019-03-19T01:04:13.142Z,59.10
2019-03-19T01:06:40.989Z,58.90
2019-03-19T01:09:08.642Z,58.90
2019-03-19T01:11:36.153Z,59.10
2019-03-19T01:14:03.809Z,59.10
2019-03-19T01:16:31.506Z,59.20
2019-03-19T01:18:59.512Z,59.30
2019-03-19T01:21:27.129Z,59.40
2019-03-19T01:23:54.841Z,59.50
2019-03-19T01:26:22.918Z,59.50
2019-03-19T01:28:50.623Z,59.60
2019-03-19T01:31:19.723Z,59.70
2019-03-19T01:33:47.389Z,59.90
2019-03-19T01:36:15.172Z,59.80
2019-03-19T01:38:42.782Z,60.00
2019-03-19T01:41:10.414Z,60.00
2019-03-19T01:43:38.004Z,60.00
2019-03-19T01:46:05.765Z,60.10
2019-03-19T01:48:33.389Z,60.10
2019-03-19T01:51:01.127Z,60.10
2019-03-19T01:53:31.480Z,60.10
2019-03-19T01:56:05.242Z,60.00
2019-03-19T01:58:28.667Z,60.30
2019-03-19T02:00:57.045Z,60.40
2019-03-19T02:03:24.848Z,60.30
2019-03-19T02:05:52.466Z,60.40
2019-03-19T02:08:20.047Z,60.40
2019-03-19T02:10:47.740Z,60.40
2019-03-19T02:13:15.447Z,60.40
2019-03-19T02:15:43.420Z,60.40
2019-03-19T02:19:06.856Z,60.50
2019-03-19T02:21:34.763Z,60.40
2019-03-19T02:24:02.656Z,60.40
2019-03-19T02:26:30.491Z,60.60
2019-03-19T02:28:58.343Z,60.60
2019-03-19T02:31:26.104Z,60.70
2019-03-19T02:33:53.919Z,60.70
2019-03-19T02:36:21.773Z,60.70
2019-03-19T02:38:49.593Z,60.70
2019-03-19T02:41:17.596Z,60.70
2019-03-19T02:43:45.276Z,60.60
2019-03-19T02:46:13.062Z,60.60
2019-03-19T02:48:40.699Z,60.50
2019-03-19T02:51:08.385Z,60.50
2019-03-19T02:53:37.222Z,60.50
2019-03-19T02:56:06.022Z,60.50
2019-03-19T02:58:33.635Z,60.40
2019-03-19T03:01:01.250Z,60.50
2019-03-19T03:03:28.968Z,60.30
2019-03-19T03:05:56.945Z,60.10
2019-03-19T03:08:24.597Z,60.10
2019-03-19T03:10:52.358Z,60.20
2019-03-19T03:13:20.094Z,60.20
2019-03-19T03:15:47.890Z,60.30
2019-03-19T03:18:15.588Z,60.30
2019-03-19T03:20:43.229Z,60.50
2019-03-19T03:23:11.159Z,60.60
2019-03-19T03:25:38.915Z,60.70
2019-03-19T03:28:06.558Z,60.70
2019-03-19T03:30:34.151Z,60.70
2019-03-19T03:33:03.300Z,60.90
2019-03-19T03:35:31.043Z,60.90
2019-03-19T03:37:58.703Z,60.90
2019-03-19T03:40:26.348Z,61.10
2019-03-19T03:42:58.841Z,61.10
2019-03-19T03:45:26.384Z,61.10
2019-03-19T03:47:54.386Z,61.20
2019-03-19T03:50:22.316Z,61.30
2019-03-19T03:52:49.893Z,61.20
2019-03-19T03:55:17.752Z,61.20
2019-03-19T03:57:45.486Z,61.30
2019-03-19T04:00:13.286Z,61.40
2019-03-19T04:02:44.492Z,61.60
2019-03-19T04:05:10.773Z,61.70
2019-03-19T04:07:38.416Z,61.60
2019-03-19T04:10:07.317Z,61.80
2019-03-19T04:12:35.726Z,62.00
2019-03-19T04:15:14.393Z,62.30
2019-03-19T04:17:33.296Z,62.40
2019-03-19T04:20:00.971Z,62.50
2019-03-19T04:22:28.681Z,62.30
2019-03-19T04:24:56.454Z,62.20
2019-03-19T04:27:24.202Z,62.20
2019-03-19T04:29:51.866Z,62.20
2019-03-19T04:32:19.498Z,62.40
2019-03-19T04:34:47.044Z,62.60
2019-03-19T04:37:14.766Z,62.90
2019-03-19T04:39:43.591Z,62.90
2019-03-19T04:42:11.379Z,63.40
2019-03-19T04:44:41.038Z,63.20
2019-03-19T04:47:08.471Z,63.40
2019-03-19T04:49:36.161Z,63.10
2019-03-19T04:52:03.817Z,63.00
2019-03-19T04:54:31.598Z,62.90
2019-03-19T04:57:08.053Z,62.90
2019-03-19T04:59:35.972Z,62.90
2019-03-19T05:02:03.585Z,63.20
2019-03-19T05:04:31.155Z,63.40
2019-03-19T05:06:58.826Z,63.60
2019-03-19T05:09:26.468Z,63.60
2019-03-19T05:11:54.140Z,63.60
2019-03-19T05:14:22.003Z,63.50
2019-03-19T05:16:49.751Z,63.20
2019-03-19T05:19:20.247Z,63.00
2019-03-19T05:21:47.846Z,62.90
2019-03-19T05:24:15.604Z,62.90
2019-03-19T05:26:43.446Z,62.90
2019-03-19T05:29:11.082Z,62.60
2019-03-19T05:31:38.812Z,62.70
2019-03-19T05:34:06.538Z,62.90
2019-03-19T05:36:34.242Z,62.60
2019-03-19T05:39:02.077Z,62.60
2019-03-19T05:41:32.334Z,62.40
2019-03-19T05:44:00.042Z,62.40
2019-03-19T05:46:27.636Z,62.50
2019-03-19T05:48:55.335Z,62.40
2019-03-19T05:51:23.013Z,62.30
2019-03-19T05:53:50.615Z,62.20
2019-03-19T05:56:18.290Z,62.10
2019-03-19T05:58:45.927Z,62.10
2019-03-19T06:01:13.628Z,62.00
2019-03-19T06:03:41.179Z,61.90
2019-03-19T06:06:08.829Z,61.80
2019-03-19T06:08:36.505Z,61.70
2019-03-19T06:11:04.189Z,61.70
2019-03-19T06:13:34.455Z,61.70
2019-03-19T06:16:02.185Z,61.50
2019-03-19T06:18:35.263Z,61.60
2019-03-19T06:21:00.705Z,61.50
2019-03-19T06:23:28.448Z,61.40
2019-03-19T06:25:56.220Z,61.30
2019-03-19T06:28:24.028Z,61.30
2019-03-19T06:30:52.020Z,61.40
2019-03-19T06:33:20.030Z,61.00
2019-03-19T06:35:47.666Z,60.60
2019-03-19T06:38:15.692Z,60.50
2019-03-19T06:40:43.348Z,60.60
2019-03-19T06:43:11.068Z,60.50
2019-03-19T06:45:38.996Z,60.80
2019-03-19T06:48:07.381Z,60.80
2019-03-19T06:50:44.627Z,60.80
2019-03-19T06:53:05.372Z,60.50
2019-03-19T06:55:33.044Z,60.50
2019-03-19T06:58:10.523Z,60.40
2019-03-19T07:00:30.121Z,60.20
2019-03-19T07:02:58.302Z,60.00
2019-03-19T07:05:26.043Z,60.10
2019-03-19T07:07:53.746Z,60.20
2019-03-19T07:10:21.440Z,60.30
2019-03-19T07:12:49.297Z,60.30
2019-03-19T07:15:17.105Z,60.50
2019-03-19T07:17:45.137Z,60.60
2019-03-19T07:20:13.627Z,60.80
2019-03-19T07:22:43.281Z,60.80
2019-03-19T07:25:10.862Z,60.60
2019-03-19T07:27:38.644Z,60.50
2019-03-19T07:30:09.974Z,60.50
2019-03-19T07:32:37.620Z,60.30
2019-03-19T07:35:05.554Z,60.30
2019-03-19T07:37:33.375Z,60.40
2019-03-19T07:40:01.233Z,60.70
2019-03-19T07:42:28.908Z,60.50
2019-03-19T07:44:56.690Z,60.50
2019-03-19T07:47:24.589Z,60.20
2019-03-19T07:49:52.348Z,60.30
2019-03-19T07:52:20.031Z,60.00
2019-03-19T07:54:47.788Z,59.90
2019-03-19T07:57:15.528Z,59.40
2019-03-19T07:59:43.234Z,59.30
2019-03-19T08:02:10.895Z,58.90
2019-03-19T08:04:38.733Z,58.30
2019-03-19T08:07:07.693Z,58.70
2019-03-19T08:09:35.629Z,58.50
2019-03-19T08:12:03.451Z,58.30
2019-03-19T08:14:31.242Z,58.30
2019-03-19T08:16:58.973Z,58.40
2019-03-19T08:19:28.810Z,58.80
2019-03-19T08:21:56.576Z,58.80
2019-03-19T08:24:24.356Z,58.50
2019-03-19T08:26:52.111Z,57.80
2019-03-19T08:29:19.816Z,57.60
2019-03-19T08:31:47.564Z,57.60
2019-03-19T08:34:15.322Z,56.90
2019-03-19T08:36:43.026Z,56.90
2019-03-19T08:39:10.846Z,57.00
2019-03-19T08:41:38.641Z,56.60
2019-03-19T08:44:06.302Z,56.60
2019-03-19T08:46:34.175Z,57.10
2019-03-19T08:49:01.853Z,56.90
2019-03-19T08:51:29.745Z,56.80
2019-03-19T08:53:57.699Z,56.10
2019-03-19T08:56:25.453Z,56.20
2019-03-19T08:58:53.171Z,56.10
2019-03-19T09:01:20.874Z,55.50
2019-03-19T09:03:48.516Z,54.90
2019-03-19T09:06:16.273Z,55.10
2019-03-19T09:08:43.836Z,55.50
2019-03-19T09:11:11.427Z,55.10
2019-03-19T09:13:39.068Z,55.60
2019-03-19T09:16:07.236Z,55.20
2019-03-19T09:18:35.025Z,54.30
2019-03-19T09:21:03.280Z,54.20
2019-03-19T09:23:33.323Z,54.60
2019-03-19T09:26:01.953Z,55.30
2019-03-19T09:28:30.264Z,55.60
2019-03-19T09:30:58.149Z,55.80
2019-03-19T09:33:26.958Z,56.00
2019-03-19T09:35:55.029Z,56.00
2019-03-19T09:38:22.745Z,56.00
2019-03-19T09:40:50.407Z,56.30
2019-03-19T09:43:18.113Z,56.80
2019-03-19T09:45:46.275Z,56.50
2019-03-19T09:48:14.200Z,56.70
2019-03-19T09:50:42.259Z,56.70
2019-03-19T09:53:10.285Z,56.20
2019-03-19T09:55:48.602Z,55.70
2019-03-19T09:58:12.338Z,55.50
2019-03-19T10:00:43.224Z,55.60
2019-03-19T10:03:11.919Z,55.90
2019-03-19T10:05:41.306Z,55.80
2019-03-19T10:08:09.132Z,55.50
2019-03-19T10:10:40.372Z,55.70
2019-03-19T10:13:09.196Z,55.30
2019-03-19T10:15:37.022Z,54.70
2019-03-19T10:18:04.927Z,54.60
2019-03-19T10:20:32.659Z,54.30
2019-03-19T10:23:00.356Z,53.00
2019-03-19T10:25:28.086Z,52.80
2019-03-19T10:27:55.756Z,52.90
2019-03-19T10:30:23.799Z,52.80
2019-03-19T10:32:51.525Z,53.20
2019-03-19T10:35:19.484Z,53.30
2019-03-19T10:37:47.127Z,51.80
2019-03-19T10:40:14.813Z,52.50
2019-03-19T10:42:43.176Z,52.60
2019-03-19T10:45:11.441Z,52.50
2019-03-19T10:47:39.177Z,53.60
2019-03-19T10:50:14.623Z,53.00
2019-03-19T10:52:42.399Z,53.40
2019-03-19T10:55:10.505Z,53.80
2019-03-19T10:57:38.354Z,53.70
2019-03-19T11:00:21.087Z,52.80
2019-03-19T11:02:49.080Z,53.20
2019-03-19T11:05:17.049Z,53.50
2019-03-19T11:07:52.501Z,53.60
2019-03-19T11:10:38.306Z,52.30
2019-03-19T11:13:06.306Z,52.30
2019-03-19T11:15:34.318Z,52.10
2019-03-19T11:18:04.582Z,51.90
2019-03-19T11:20:32.473Z,52.40
2019-03-19T11:23:00.193Z,53.50
2019-03-19T11:25:28.789Z,53.20
2019-03-19T11:27:56.619Z,53.10
2019-03-19T11:30:24.526Z,52.70
2019-03-19T11:32:52.330Z,52.20
2019-03-19T11:35:20.506Z,51.30
2019-03-19T11:37:48.520Z,50.30
2019-03-19T11:40:18.197Z,49.10
2019-03-19T11:42:49.172Z,48.20
2019-03-19T11:45:19.870Z,48.00
2019-03-19T11:47:47.940Z,47.10
2019-03-19T11:50:17.856Z,49.10
2019-03-19T11:52:45.701Z,50.20
2019-03-19T11:55:13.976Z,49.70
2019-03-19T11:57:41.964Z,50.20
2019-03-19T12:00:31.176Z,50.40
2019-03-19T12:02:59.125Z,50.80
2019-03-19T12:05:27.137Z,50.40
2019-03-19T12:07:54.987Z,49.70
2019-03-19T12:10:22.941Z,48.80
2019-03-19T12:12:51.473Z,48.80
2019-03-19T12:15:19.277Z,49.40
2019-03-19T12:17:48.827Z,50.00
2019-03-19T12:21:07.663Z,51.30
2019-03-19T12:24:14.947Z,51.30
2019-03-19T12:27:39.632Z,51.10
2019-03-19T12:30:35.624Z,51.90
2019-03-19T12:36:24.652Z,51.20
2019-03-19T12:38:53.071Z,51.70
2019-03-19T12:41:20.924Z,51.80
2019-03-19T12:43:49.162Z,52.70
2019-03-19T12:46:17.132Z,51.90
2019-03-19T12:48:45.112Z,51.20
2019-03-19T12:51:13.005Z,52.40
2019-03-19T12:53:43.989Z,52.80
2019-03-19T12:56:14.897Z,53.30
2019-03-19T12:58:45.740Z,53.30
2019-03-19T13:01:14.315Z,54.00
2019-03-19T13:03:44.712Z,54.30
2019-03-19T13:06:12.517Z,53.70
2019-03-19T13:08:40.560Z,53.60
2019-03-19T13:11:09.373Z,53.40
2019-03-19T13:13:41.046Z,53.90
2019-03-19T13:16:09.208Z,53.80
2019-03-19T13:18:37.306Z,53.00
2019-03-19T13:21:13.647Z,51.60
2019-03-19T13:23:42.234Z,50.80
2019-03-19T13:29:42.404Z,50.90
2019-03-19T13:32:40.207Z,50.20
2019-03-19T13:35:16.737Z,49.40
2019-03-19T13:38:04.638Z,47.70
2019-03-19T13:40:39.704Z,47.70
2019-03-19T13:46:19.122Z,47.90
2019-03-19T13:49:08.932Z,46.70
2019-03-19T13:51:44.751Z,47.30
2019-03-19T13:54:16.908Z,48.00
2019-03-19T13:57:15.841Z,48.30
2019-03-19T14:00:01.218Z,49.00
2019-03-19T14:05:38.058Z,49.90
2019-03-19T14:08:02.301Z,49.70
2019-03-19T14:10:30.306Z,49.60
2019-03-19T14:12:58.236Z,50.00
2019-03-19T14:15:26.744Z,49.40
2019-03-19T14:17:56.400Z,49.60
2019-03-19T14:20:24.078Z,49.10
2019-03-19T14:22:55.052Z,49.60
2019-03-19T14:25:22.813Z,49.50
2019-03-19T14:27:51.278Z,50.30
2019-03-19T14:30:19.432Z,50.50
2019-03-19T14:32:47.412Z,49.40
2019-03-19T14:35:15.360Z,48.80
2019-03-19T14:37:43.750Z,50.80
2019-03-19T14:40:14.424Z,50.20
2019-03-19T14:42:43.056Z,49.70
2019-03-19T14:45:11.542Z,49.40
2019-03-19T14:47:42.092Z,49.90
2019-03-19T14:50:14.789Z,50.80
2019-03-19T14:52:46.718Z,49.70
2019-03-19T14:55:18.650Z,49.60
2019-03-19T14:57:50.674Z,49.80
2019-03-19T15:00:19.103Z,49.90
2019-03-19T15:02:48.600Z,50.70
2019-03-19T15:05:27.494Z,50.60
2019-03-19T15:07:57.734Z,50.70
2019-03-19T15:10:28.456Z,51.70
2019-03-19T15:12:57.198Z,51.70
2019-03-19T15:15:25.076Z,52.10
2019-03-19T15:17:53.064Z,52.30
2019-03-19T15:20:20.943Z,53.10
2019-03-19T15:22:49.260Z,53.50
2019-03-19T15:25:17.141Z,52.80
2019-03-19T15:27:45.053Z,53.20
2019-03-19T15:30:14.237Z,54.30
2019-03-19T15:32:42.004Z,53.70
2019-03-19T15:35:10.117Z,53.40
2019-03-19T15:37:39.721Z,53.40
2019-03-19T15:40:09.575Z,54.10
2019-03-19T15:42:37.281Z,54.70
2019-03-19T15:45:05.646Z,53.70
2019-03-19T15:47:34.118Z,54.30
2019-03-19T15:50:01.663Z,54.00
2019-03-19T15:52:29.394Z,53.70
2019-03-19T15:54:57.930Z,53.90
2019-03-19T15:57:26.826Z,54.00
2019-03-19T15:59:54.790Z,54.80
2019-03-19T16:02:22.471Z,55.10
2019-03-19T16:04:50.162Z,54.90
2019-03-19T16:07:17.794Z,55.20
2019-03-19T16:09:45.744Z,55.10
2019-03-19T16:12:13.384Z,55.30
2019-03-19T16:14:40.939Z,55.20
2019-03-19T16:17:09.654Z,55.00
2019-03-19T16:19:37.721Z,55.70
2019-03-19T16:22:05.365Z,55.60
2019-03-19T16:24:33.070Z,56.00
2019-03-19T16:27:01.589Z,55.90
2019-03-19T16:29:29.610Z,56.00
2019-03-19T16:31:57.286Z,56.00
2019-03-19T16:34:27.274Z,56.10
2019-03-19T16:36:56.337Z,56.30
2019-03-19T16:39:23.946Z,56.10
2019-03-19T16:41:51.579Z,56.10
2019-03-19T16:44:19.427Z,56.90
2019-03-19T16:46:47.135Z,56.80
2019-03-19T16:49:14.878Z,57.00
2019-03-19T16:51:42.491Z,56.40
2019-03-19T16:54:10.171Z,56.20
2019-03-19T16:56:38.161Z,56.40
2019-03-19T16:59:05.976Z,56.70
2019-03-19T17:01:33.721Z,56.60
2019-03-19T17:04:01.353Z,56.70
2019-03-19T17:06:29.055Z,57.20
2019-03-19T17:08:56.756Z,57.10
2019-03-19T17:11:24.402Z,57.80
2019-03-19T17:13:52.113Z,57.60
2019-03-19T17:16:19.785Z,57.60
2019-03-19T17:18:47.546Z,57.70
2019-03-19T17:21:16.607Z,57.90
2019-03-19T17:23:45.492Z,57.80
2019-03-19T17:26:13.207Z,57.80
2019-03-19T17:28:40.892Z,57.60
2019-03-19T17:31:08.658Z,57.60
2019-03-19T17:33:36.321Z,57.70
2019-03-19T17:36:03.969Z,59.10
2019-03-19T17:38:31.653Z,59.00
2019-03-19T17:40:59.336Z,59.10
2019-03-19T17:43:26.976Z,59.70
2019-03-19T17:45:54.702Z,59.90
2019-03-19T17:48:22.434Z,59.60
2019-03-19T17:50:50.874Z,59.70
2019-03-19T17:53:18.673Z,59.70
2019-03-19T17:55:46.298Z,59.90
2019-03-19T17:58:15.065Z,60.00
2019-03-19T18:00:43.975Z,59.90
2019-03-19T18:03:11.648Z,59.60
2019-03-19T18:05:39.387Z,59.80
2019-03-19T18:08:06.998Z,59.60
2019-03-19T18:10:34.653Z,59.50
2019-03-19T18:13:02.317Z,59.70
2019-03-19T18:15:31.488Z,59.50
2019-03-19T18:17:59.195Z,59.50
2019-03-19T18:20:26.872Z,59.50
2019-03-19T18:22:54.622Z,59.50
2019-03-19T18:25:22.339Z,59.40
2019-03-19T18:27:49.941Z,59.30
2019-03-19T18:30:17.663Z,59.30
2019-03-19T18:32:45.460Z,59.40
2019-03-19T18:35:13.241Z,59.30
2019-03-19T18:37:40.932Z,59.20
2019-03-19T18:40:08.632Z,59.30
2019-03-19T18:42:36.275Z,59.60
2019-03-19T18:45:06.218Z,60.00
2019-03-19T18:47:34.002Z,60.30
2019-03-19T18:50:01.757Z,60.30
2019-03-19T18:52:30.788Z,60.30
2019-03-19T18:54:58.597Z,60.40
2019-03-19T18:57:26.338Z,60.30
2019-03-19T18:59:53.944Z,60.30
2019-03-19T19:02:21.760Z,60.20
2019-03-19T19:04:49.493Z,60.40
2019-03-19T19:07:17.221Z,60.10
2019-03-19T19:09:44.913Z,60.00
2019-03-19T19:12:12.578Z,60.00
2019-03-19T19:14:40.391Z,59.90
2019-03-19T19:17:08.020Z,59.60
2019-03-19T19:19:36.794Z,59.40
2019-03-19T19:22:04.559Z,59.90
2019-03-19T19:24:32.876Z,59.70
2019-03-19T19:27:00.690Z,59.50
2019-03-19T19:29:28.354Z,59.40
2019-03-19T19:31:55.998Z,59.60
2019-03-19T19:34:23.540Z,59.80
2019-03-19T19:36:51.255Z,60.10
2019-03-19T19:39:18.842Z,60.20
2019-03-19T19:41:46.412Z,60.10
2019-03-19T19:44:14.027Z,60.10
2019-03-19T19:46:41.655Z,60.10
2019-03-19T19:49:09.446Z,60.20
2019-03-19T19:51:37.105Z,60.20
2019-03-19T19:54:05.882Z,60.00
2019-03-19T19:56:33.589Z,60.00
2019-03-19T19:59:01.380Z,60.10
2019-03-19T20:01:29.011Z,60.10
2019-03-19T20:03:56.745Z,60.10
2019-03-19T20:06:24.336Z,60.10
2019-03-19T20:08:52.278Z,60.10
2019-03-19T20:11:19.979Z,60.00
2019-03-19T20:13:47.654Z,59.80
2019-03-19T20:16:15.318Z,59.70
2019-03-19T20:18:42.966Z,59.70
2019-03-19T20:21:10.629Z,59.80
2019-03-19T20:23:38.347Z,60.00
2019-03-19T20:26:09.153Z,59.90
2019-03-19T20:28:36.794Z,60.20
2019-03-19T20:31:04.417Z,59.70
2019-03-19T20:33:32.048Z,59.70
2019-03-19T20:35:59.852Z,59.70
2019-03-19T20:38:27.681Z,59.60
2019-03-19T20:40:55.302Z,59.50
2019-03-19T20:43:22.844Z,59.50
2019-03-19T20:45:50.530Z,59.50
2019-03-19T20:48:18.274Z,59.40
2019-03-19T20:50:45.904Z,59.60
2019-03-19T20:53:13.571Z,59.60
2019-03-19T20:55:41.249Z,59.70
2019-03-19T20:58:08.970Z,59.70
2019-03-19T21:00:36.607Z,59.70
2019-03-19T21:03:05.509Z,60.00
2019-03-19T21:05:33.155Z,60.10
2019-03-19T21:08:00.844Z,60.00
2019-03-19T21:10:28.825Z,60.20
2019-03-19T21:12:56.396Z,60.30
2019-03-19T21:15:24.310Z,60.30
2019-03-19T21:17:53.206Z,60.50
2019-03-19T21:20:21.085Z,60.70
2019-03-19T21:22:51.422Z,60.80
2019-03-19T21:25:19.135Z,61.10
2019-03-19T21:27:46.923Z,61.10
2019-03-19T21:30:14.814Z,61.10
2019-03-19T21:32:42.427Z,61.10
2019-03-19T21:35:10.132Z,61.20
2019-03-19T21:37:37.673Z,61.20
2019-03-19T21:40:06.052Z,61.30
2019-03-19T21:42:35.302Z,61.50
2019-03-19T21:45:03.442Z,61.50
2019-03-19T21:47:31.094Z,61.50
2019-03-19T21:49:58.769Z,62.00
2019-03-19T21:52:26.474Z,62.50
2019-03-19T21:54:54.170Z,62.80
2019-03-19T21:57:21.862Z,62.70
2019-03-19T21:59:49.564Z,62.50
2019-03-19T22:02:17.382Z,62.80
2019-03-19T22:04:45.239Z,63.20
2019-03-19T22:07:12.786Z,63.20
2019-03-19T22:09:40.465Z,63.90
2019-03-19T22:12:09.490Z,64.50
2019-03-19T22:14:37.121Z,66.10
2019-03-19T22:17:04.767Z,66.50
2019-03-19T22:19:32.438Z,65.70
2019-03-19T22:22:00.073Z,65.70
2019-03-19T22:24:27.791Z,65.40
2019-03-19T22:26:55.508Z,65.20
2019-03-19T22:29:23.184Z,65.60
2019-03-19T22:31:50.697Z,65.30
2019-03-19T22:34:18.368Z,65.10
2019-03-19T22:36:46.046Z,64.90
2019-03-19T22:39:13.689Z,65.10
2019-03-19T22:41:42.370Z,65.20
2019-03-19T22:44:10.020Z,64.90
2019-03-19T22:46:37.865Z,65.10
2019-03-19T22:49:05.526Z,65.00
2019-03-19T22:51:33.204Z,65.30
2019-03-19T22:54:00.855Z,65.90
2019-03-19T22:56:28.454Z,66.20
2019-03-19T22:58:56.272Z,66.70
2019-03-19T23:01:23.950Z,67.20
2019-03-19T23:03:51.991Z,68.30
2019-03-19T23:06:19.609Z,68.80
2019-03-19T23:08:47.229Z,69.70
2019-03-19T23:11:20.013Z,69.50
2019-03-19T23:13:47.869Z,69.90
2019-03-19T23:16:17.298Z,69.70
2019-03-19T23:18:44.900Z,69.30
2019-03-19T23:21:13.901Z,69.40
2019-03-19T23:23:41.514Z,69.50
2019-03-19T23:26:21.359Z,69.80
2019-03-19T23:28:42.626Z,70.40
2019-03-19T23:31:11.620Z,70.60
2019-03-19T23:33:39.142Z,70.80
2019-03-19T23:36:09.914Z,71.10
2019-03-19T23:38:37.451Z,72.10
2019-03-19T23:41:05.719Z,72.00
2019-03-19T23:43:34.730Z,72.00
2019-03-19T23:46:02.366Z,72.20
2019-03-19T23:48:30.094Z,72.20
2019-03-19T23:51:00.022Z,72.40
2019-03-19T23:53:27.772Z,72.20
2019-03-19T23:55:55.441Z,71.00
2019-03-19T23:58:23.049Z,70.50
